createdAt,value
2023-05-04T00:00:49.107Z,608.00
2023-05-04T00:01:49.154Z,607.00
2023-05-04T00:02:49.224Z,605.00
2023-05-04T00:03:49.401Z,605.00
2023-05-04T00:04:49.373Z,606.00
2023-05-04T00:05:49.326Z,605.00
2023-05-04T00:06:49.374Z,608.00
2023-05-04T00:07:49.418Z,605.00
2023-05-04T00:08:49.460Z,606.00
2023-05-04T00:09:49.486Z,606.00
2023-05-04T00:10:49.506Z,607.00
2023-05-04T00:11:49.576Z,609.00
2023-05-04T00:12:49.653Z,609.00
2023-05-04T00:13:49.659Z,610.00
2023-05-04T00:14:49.708Z,611.00
2023-05-04T00:15:49.737Z,612.00
2023-05-04T00:16:49.841Z,612.00
2023-05-04T00:17:49.830Z,616.00
2023-05-04T00:18:49.862Z,617.00
2023-05-04T00:19:49.919Z,617.00
2023-05-04T00:20:49.996Z,618.00
2023-05-04T00:21:50.043Z,620.00
2023-05-04T00:22:50.070Z,621.00
2023-05-04T00:23:50.067Z,620.00
2023-05-04T00:24:50.122Z,619.00
2023-05-04T00:25:50.264Z,618.00
2023-05-04T00:26:50.220Z,621.00
2023-05-04T00:27:50.280Z,621.00
2023-05-04T00:28:50.307Z,621.00
2023-05-04T00:29:50.365Z,621.00
2023-05-04T00:30:50.393Z,619.00
2023-05-04T00:31:50.507Z,618.00
2023-05-04T00:32:50.517Z,617.00
2023-05-04T00:33:50.532Z,616.00
2023-05-04T00:34:50.570Z,615.00
2023-05-04T00:35:50.643Z,615.00
2023-05-04T00:36:50.740Z,617.00
2023-05-04T00:37:50.744Z,618.00
2023-05-04T00:38:50.835Z,619.00
2023-05-04T00:39:50.842Z,617.00
2023-05-04T00:40:50.864Z,618.00
2023-05-04T00:41:50.941Z,618.00
2023-05-04T00:42:51.286Z,616.00
2023-05-04T00:43:50.997Z,615.00
2023-05-04T00:44:51.112Z,613.00
2023-05-04T00:45:51.112Z,613.00
2023-05-04T00:46:51.282Z,614.00
2023-05-04T00:47:51.224Z,614.00
2023-05-04T00:48:51.234Z,614.00
2023-05-04T00:49:51.277Z,614.00
2023-05-04T00:50:51.307Z,616.00
2023-05-04T00:51:51.394Z,617.00
2023-05-04T00:52:51.395Z,617.00
2023-05-04T00:53:51.423Z,621.00
2023-05-04T00:54:51.484Z,621.00
2023-05-04T00:55:51.519Z,619.00
2023-05-04T00:56:51.557Z,621.00
2023-05-04T00:57:51.628Z,622.00
2023-05-04T00:58:51.659Z,622.00
2023-05-04T00:59:51.706Z,623.00
2023-05-04T01:00:51.828Z,625.00
2023-05-04T01:01:51.802Z,624.00
2023-05-04T01:02:51.907Z,623.00
2023-05-04T01:03:51.927Z,624.00
2023-05-04T01:04:51.938Z,625.00
2023-05-04T01:05:51.974Z,621.00
2023-05-04T01:06:52.069Z,621.00
2023-05-04T01:07:52.325Z,620.00
2023-05-04T01:08:52.093Z,619.00
2023-05-04T01:09:52.138Z,620.00
2023-05-04T01:10:52.221Z,620.00
2023-05-04T01:11:52.222Z,619.00
2023-05-04T01:12:52.296Z,621.00
2023-05-04T01:13:52.326Z,622.00
2023-05-04T01:14:52.398Z,621.00
2023-05-04T01:15:52.440Z,619.00
2023-05-04T01:16:52.586Z,621.00
2023-05-04T01:17:52.565Z,622.00
2023-05-04T01:18:52.572Z,620.00
2023-05-04T01:19:52.649Z,618.00
2023-05-04T01:20:52.679Z,618.00
2023-05-04T01:21:52.738Z,620.00
2023-05-04T01:22:53.333Z,622.00
2023-05-04T01:23:52.792Z,624.00
2023-05-04T01:24:52.871Z,625.00
2023-05-04T01:25:52.885Z,626.00
2023-05-04T01:26:52.961Z,625.00
2023-05-04T01:27:53.030Z,627.00
2023-05-04T01:28:53.029Z,627.00
2023-05-04T01:29:53.073Z,629.00
2023-05-04T01:30:53.156Z,628.00
2023-05-04T01:31:53.195Z,628.00
2023-05-04T01:32:53.289Z,627.00
2023-05-04T01:33:53.316Z,624.00
2023-05-04T01:34:53.367Z,621.00
2023-05-04T01:35:53.405Z,621.00
2023-05-04T01:36:53.493Z,621.00
2023-05-04T01:37:53.508Z,623.00
2023-05-04T01:38:53.558Z,622.00
2023-05-04T01:39:55.303Z,625.00
2023-05-04T01:40:53.688Z,626.00
2023-05-04T01:41:53.749Z,627.00
2023-05-04T01:42:53.798Z,627.00
2023-05-04T01:43:53.832Z,630.00
2023-05-04T01:44:53.897Z,628.00
2023-05-04T01:45:53.950Z,627.00
2023-05-04T01:46:54.001Z,625.00
2023-05-04T01:47:54.093Z,625.00
2023-05-04T01:48:54.134Z,623.00
2023-05-04T01:49:54.147Z,624.00
2023-05-04T01:50:54.197Z,623.00
2023-05-04T01:51:54.251Z,622.00
2023-05-04T01:52:54.343Z,624.00
2023-05-04T01:53:54.341Z,623.00
2023-05-04T01:54:54.401Z,620.00
2023-05-04T01:55:54.454Z,621.00
2023-05-04T01:56:54.573Z,624.00
2023-05-04T01:57:54.615Z,623.00
2023-05-04T01:58:54.617Z,626.00
2023-05-04T01:59:56.337Z,625.00
2023-05-04T02:00:54.736Z,622.00
2023-05-04T02:01:54.816Z,620.00
2023-05-04T02:02:54.920Z,620.00
2023-05-04T02:03:55.020Z,622.00
2023-05-04T02:04:55.087Z,624.00
2023-05-04T02:05:55.011Z,623.00
2023-05-04T02:06:55.058Z,624.00
2023-05-04T02:07:55.130Z,624.00
2023-05-04T02:08:55.182Z,621.00
2023-05-04T02:09:55.241Z,619.00
2023-05-04T02:10:55.291Z,621.00
2023-05-04T02:11:55.375Z,619.00
2023-05-04T02:12:55.486Z,621.00
2023-05-04T02:13:55.505Z,620.00
2023-05-04T02:14:55.529Z,619.00
2023-05-04T02:15:55.670Z,619.00
2023-05-04T02:16:55.653Z,618.00
2023-05-04T02:17:55.824Z,619.00
2023-05-04T02:18:55.764Z,621.00
2023-05-04T02:19:55.823Z,620.00
2023-05-04T02:20:55.902Z,622.00
2023-05-04T02:21:55.976Z,624.00
2023-05-04T02:22:55.985Z,623.00
2023-05-04T02:23:56.060Z,624.00
2023-05-04T02:24:56.106Z,627.00
2023-05-04T02:25:56.154Z,627.00
2023-05-04T02:26:56.229Z,629.00
2023-05-04T02:27:56.287Z,629.00
2023-05-04T02:28:56.424Z,631.00
2023-05-04T02:29:56.441Z,633.00
2023-05-04T02:30:56.429Z,633.00
2023-05-04T02:31:56.614Z,631.00
2023-05-04T02:32:56.651Z,631.00
2023-05-04T02:33:56.611Z,630.00
2023-05-04T02:34:56.709Z,631.00
2023-05-04T02:35:56.732Z,630.00
2023-05-04T02:36:56.788Z,628.00
2023-05-04T02:37:57.336Z,626.00
2023-05-04T02:38:56.924Z,623.00
2023-05-04T02:39:56.963Z,622.00
2023-05-04T02:40:57.066Z,624.00
2023-05-04T02:41:57.108Z,623.00
2023-05-04T02:42:57.177Z,623.00
2023-05-04T02:43:57.240Z,623.00
2023-05-04T02:44:57.356Z,623.00
2023-05-04T02:45:57.444Z,625.00
2023-05-04T02:46:57.452Z,623.00
2023-05-04T02:47:57.492Z,622.00
2023-05-04T02:48:57.548Z,622.00
2023-05-04T02:49:57.618Z,622.00
2023-05-04T02:50:57.764Z,622.00
2023-05-04T02:51:57.764Z,624.00
2023-05-04T02:52:57.790Z,626.00
2023-05-04T02:53:57.854Z,626.00
2023-05-04T02:54:57.913Z,625.00
2023-05-04T02:55:57.996Z,627.00
2023-05-04T02:56:58.121Z,626.00
2023-05-04T02:57:58.125Z,625.00
2023-05-04T02:58:58.161Z,623.00
2023-05-04T02:59:58.227Z,627.00
2023-05-04T03:00:58.294Z,628.00
2023-05-04T03:01:58.355Z,628.00
2023-05-04T03:02:58.468Z,629.00
2023-05-04T03:03:58.476Z,626.00
2023-05-04T03:04:58.561Z,624.00
2023-05-04T03:05:58.585Z,625.00
2023-05-04T03:06:58.657Z,625.00
2023-05-04T03:07:58.753Z,623.00
2023-05-04T03:08:58.803Z,623.00
2023-05-04T03:09:58.824Z,624.00
2023-05-04T03:10:58.936Z,626.00
2023-05-04T03:11:58.950Z,623.00
2023-05-04T03:12:59.052Z,621.00
2023-05-04T03:13:59.052Z,622.00
2023-05-04T03:14:59.125Z,621.00
2023-05-04T03:15:59.206Z,622.00
2023-05-04T03:16:59.260Z,622.00
2023-05-04T03:17:59.373Z,623.00
2023-05-04T03:18:59.409Z,621.00
2023-05-04T03:19:59.495Z,621.00
2023-05-04T03:20:59.481Z,618.00
2023-05-04T03:21:59.550Z,618.00
2023-05-04T03:22:59.576Z,619.00
2023-05-04T03:23:59.663Z,624.00
2023-05-04T03:24:59.710Z,624.00
2023-05-04T03:25:59.780Z,625.00
2023-05-04T03:26:59.844Z,627.00
2023-05-04T03:28:00.371Z,630.00
2023-05-04T03:28:59.934Z,631.00
2023-05-04T03:29:59.995Z,629.00
2023-05-04T03:31:00.078Z,630.00
2023-05-04T03:32:00.234Z,627.00
2023-05-04T03:33:00.233Z,628.00
2023-05-04T03:34:00.226Z,628.00
2023-05-04T03:35:02.021Z,628.00
2023-05-04T03:36:00.259Z,629.00
2023-05-04T03:37:00.342Z,629.00
2023-05-04T03:38:00.258Z,630.00
2023-05-04T03:39:00.272Z,628.00
2023-05-04T03:40:00.247Z,626.00
2023-05-04T03:41:00.256Z,629.00
2023-05-04T03:42:00.263Z,628.00
2023-05-04T03:43:00.232Z,629.00
2023-05-04T03:44:00.214Z,629.00
2023-05-04T03:45:01.137Z,629.00
2023-05-04T03:46:00.246Z,630.00
2023-05-04T03:47:00.217Z,630.00
2023-05-04T03:48:00.273Z,629.00
2023-05-04T03:49:00.204Z,629.00
2023-05-04T03:50:00.201Z,632.00
2023-05-04T03:51:00.190Z,630.00
2023-05-04T03:52:00.873Z,629.00
2023-05-04T03:53:00.233Z,632.00
2023-05-04T03:54:00.143Z,632.00
2023-05-04T03:55:00.186Z,631.00
2023-05-04T03:56:00.181Z,633.00
2023-05-04T03:57:00.172Z,636.00
2023-05-04T03:58:00.166Z,635.00
2023-05-04T03:59:00.130Z,637.00
2023-05-04T04:00:00.095Z,638.00
2023-05-04T04:01:00.134Z,641.00
2023-05-04T04:02:00.188Z,641.00
2023-05-04T04:03:00.169Z,639.00
2023-05-04T04:04:00.221Z,637.00
2023-05-04T04:05:00.084Z,636.00
2023-05-04T04:06:00.063Z,637.00
2023-05-04T04:07:00.089Z,639.00
2023-05-04T04:08:00.046Z,638.00
2023-05-04T04:09:00.072Z,636.00
2023-05-04T04:09:59.999Z,637.00
2023-05-04T04:11:00.036Z,638.00
2023-05-04T04:12:00.025Z,639.00
2023-05-04T04:13:00.097Z,639.00
2023-05-04T04:13:59.988Z,640.00
2023-05-04T04:14:59.977Z,640.00
2023-05-04T04:16:00.080Z,640.00
2023-05-04T04:16:59.970Z,640.00
2023-05-04T04:18:00.112Z,642.00
2023-05-04T04:19:00.124Z,639.00
2023-05-04T04:20:00.161Z,639.00
2023-05-04T04:21:00.226Z,639.00
2023-05-04T04:22:00.315Z,636.00
2023-05-04T04:23:00.374Z,633.00
2023-05-04T04:24:00.461Z,633.00
2023-05-04T04:25:00.469Z,633.00
2023-05-04T04:26:00.535Z,632.00
2023-05-04T04:27:00.587Z,631.00
2023-05-04T04:28:00.642Z,630.00
2023-05-04T04:29:00.688Z,630.00
2023-05-04T04:30:00.803Z,630.00
2023-05-04T04:31:00.881Z,633.00
2023-05-04T04:32:00.857Z,633.00
2023-05-04T04:33:00.969Z,633.00
2023-05-04T04:34:01.023Z,634.00
2023-05-04T04:35:01.049Z,633.00
2023-05-04T04:36:01.103Z,634.00
2023-05-04T04:37:01.209Z,633.00
2023-05-04T04:38:03.342Z,632.00
2023-05-04T04:39:01.438Z,631.00
2023-05-04T04:40:01.594Z,630.00
2023-05-04T04:41:01.589Z,629.00
2023-05-04T04:42:01.646Z,630.00
2023-05-04T04:43:01.674Z,630.00
2023-05-04T04:44:01.739Z,629.00
2023-05-04T04:45:01.786Z,631.00
2023-05-04T04:46:01.854Z,630.00
2023-05-04T04:47:01.976Z,630.00
2023-05-04T04:48:02.132Z,631.00
2023-05-04T04:49:02.012Z,629.00
2023-05-04T04:50:02.177Z,626.00
2023-05-04T04:51:02.189Z,627.00
2023-05-04T04:52:02.188Z,630.00
2023-05-04T04:53:02.271Z,629.00
2023-05-04T04:54:02.369Z,631.00
2023-05-04T04:55:02.361Z,631.00
2023-05-04T04:56:02.421Z,631.00
2023-05-04T04:57:02.488Z,632.00
2023-05-04T04:58:02.569Z,634.00
2023-05-04T04:59:02.634Z,637.00
2023-05-04T05:00:02.915Z,636.00
2023-05-04T05:01:02.926Z,633.00
2023-05-04T05:02:02.804Z,631.00
2023-05-04T05:03:02.875Z,631.00
2023-05-04T05:04:02.975Z,630.00
2023-05-04T05:05:03.042Z,632.00
2023-05-04T05:06:03.058Z,632.00
2023-05-04T05:07:03.142Z,634.00
2023-05-04T05:08:03.203Z,635.00
2023-05-04T05:09:03.276Z,637.00
2023-05-04T05:10:03.526Z,637.00
2023-05-04T05:11:03.372Z,639.00
2023-05-04T05:12:03.417Z,639.00
2023-05-04T05:13:03.533Z,640.00
2023-05-04T05:14:03.588Z,643.00
2023-05-04T05:15:03.647Z,644.00
2023-05-04T05:16:03.657Z,644.00
2023-05-04T05:17:03.776Z,645.00
2023-05-04T05:18:03.848Z,639.00
2023-05-04T05:19:03.871Z,635.00
2023-05-04T05:20:04.185Z,635.00
2023-05-04T05:21:04.020Z,636.00
2023-05-04T05:22:04.029Z,635.00
2023-05-04T05:23:04.101Z,633.00
2023-05-04T05:24:04.179Z,634.00
2023-05-04T05:25:04.253Z,634.00
2023-05-04T05:26:04.331Z,635.00
2023-05-04T05:27:05.037Z,633.00
2023-05-04T05:28:04.433Z,631.00
2023-05-04T05:29:04.458Z,631.00
2023-05-04T05:30:04.762Z,632.00
2023-05-04T05:31:04.641Z,630.00
2023-05-04T05:32:04.653Z,629.00
2023-05-04T05:33:04.834Z,632.00
2023-05-04T05:34:04.927Z,633.00
2023-05-04T05:35:05.090Z,634.00
2023-05-04T05:36:04.940Z,643.00
2023-05-04T05:37:05.013Z,708.00
2023-05-04T05:38:05.055Z,733.00
2023-05-04T05:39:05.085Z,739.00
2023-05-04T05:40:05.600Z,752.00
2023-05-04T05:41:05.253Z,762.00
2023-05-04T05:42:05.308Z,824.00
2023-05-04T05:43:05.335Z,887.00
2023-05-04T05:44:05.406Z,910.00
2023-05-04T05:45:05.435Z,1001.00
2023-05-04T05:46:05.570Z,1060.00
2023-05-04T05:47:05.509Z,1042.00
2023-05-04T05:48:06.497Z,1072.00
2023-05-04T05:49:05.604Z,1074.00
2023-05-04T05:50:05.716Z,1095.00
2023-05-04T05:51:05.662Z,1115.00
2023-05-04T05:52:05.655Z,1170.00
2023-05-04T05:53:05.733Z,1213.00
2023-05-04T05:54:05.732Z,1223.00
2023-05-04T05:55:05.702Z,1245.00
2023-05-04T05:56:05.687Z,1351.00
2023-05-04T05:57:05.720Z,1339.00
2023-05-04T05:58:05.711Z,1352.00
2023-05-04T05:59:05.677Z,1367.00
2023-05-04T06:00:05.869Z,1399.00
2023-05-04T06:01:05.718Z,1526.00
2023-05-04T06:02:05.786Z,1504.00
2023-05-04T06:03:05.909Z,1491.00
2023-05-04T06:04:06.031Z,1504.00
2023-05-04T06:05:06.057Z,1541.00
2023-05-04T06:06:06.007Z,1628.00
2023-05-04T06:07:06.105Z,1615.00
2023-05-04T06:08:06.186Z,1630.00
2023-05-04T06:09:06.152Z,1639.00
2023-05-04T06:10:07.058Z,1665.00
2023-05-04T06:11:06.277Z,1730.00
2023-05-04T06:12:06.355Z,1743.00
2023-05-04T06:13:06.482Z,1759.00
2023-05-04T06:14:06.434Z,1768.00
2023-05-04T06:15:06.497Z,1779.00
2023-05-04T06:16:06.591Z,1824.00
2023-05-04T06:17:06.607Z,1841.00
2023-05-04T06:18:06.754Z,1878.00
2023-05-04T06:19:06.807Z,1949.00
2023-05-04T06:20:06.900Z,1951.00
2023-05-04T06:21:07.449Z,2035.00
2023-05-04T06:22:06.870Z,2021.00
2023-05-04T06:23:06.890Z,2024.00
2023-05-04T06:24:06.949Z,2026.00
2023-05-04T06:25:08.178Z,2058.00
2023-05-04T06:26:07.005Z,2173.00
2023-05-04T06:27:07.077Z,2174.00
2023-05-04T06:28:07.236Z,2561.00
2023-05-04T06:29:07.167Z,2341.00
2023-05-04T06:30:07.489Z,2286.00
2023-05-04T06:31:07.343Z,2301.00
2023-05-04T06:32:07.380Z,2364.00
2023-05-04T06:33:07.445Z,2378.00
2023-05-04T06:34:07.334Z,2399.00
2023-05-04T06:35:07.461Z,2426.00
2023-05-04T06:36:07.416Z,2502.00
2023-05-04T06:37:07.494Z,2517.00
2023-05-04T06:38:07.923Z,2544.00
2023-05-04T06:39:07.490Z,2426.00
2023-05-04T06:40:07.566Z,1956.00
2023-05-04T06:41:07.536Z,1600.00
2023-05-04T06:42:07.552Z,1537.00
2023-05-04T06:43:07.584Z,1554.00
2023-05-04T06:44:07.617Z,1561.00
2023-05-04T06:45:07.723Z,1573.00
2023-05-04T06:46:07.708Z,1678.00
2023-05-04T06:47:07.684Z,1768.00
2023-05-04T06:48:07.756Z,1746.00
2023-05-04T06:49:07.789Z,1747.00
2023-05-04T06:50:07.856Z,1743.00
2023-05-04T06:51:07.843Z,1740.00
2023-05-04T06:52:07.873Z,1759.00
2023-05-04T06:53:07.862Z,1802.00
2023-05-04T06:54:07.862Z,1823.00
2023-05-04T06:55:07.928Z,1881.00
2023-05-04T06:56:07.912Z,2102.00
2023-05-04T06:57:08.044Z,1950.00
2023-05-04T06:58:07.969Z,1939.00
2023-05-04T06:59:07.941Z,1944.00
2023-05-04T07:00:07.952Z,2059.00
2023-05-04T07:01:07.981Z,1991.00
2023-05-04T07:02:08.031Z,1996.00
2023-05-04T07:03:08.190Z,2042.00
2023-05-04T07:04:08.061Z,2047.00
2023-05-04T07:05:08.005Z,2152.00
2023-05-04T07:06:08.088Z,2117.00
2023-05-04T07:07:07.988Z,2049.00
2023-05-04T07:08:08.006Z,2080.00
2023-05-04T07:09:07.961Z,2085.00
2023-05-04T07:10:08.017Z,2097.00
2023-05-04T07:11:08.034Z,2222.00
2023-05-04T07:12:08.006Z,2192.00
2023-05-04T07:13:08.142Z,2186.00
2023-05-04T07:14:10.372Z,2206.00
2023-05-04T07:15:08.116Z,2212.00
2023-05-04T07:16:08.157Z,2235.00
2023-05-04T07:17:08.155Z,2253.00
2023-05-04T07:18:08.236Z,2312.00
2023-05-04T07:19:08.299Z,2362.00
2023-05-04T07:20:08.394Z,2365.00
2023-05-04T07:21:22.519Z,2367.00
2023-05-04T07:22:09.322Z,2366.00
2023-05-04T07:23:08.290Z,2392.00
2023-05-04T07:24:08.341Z,2411.00
2023-05-04T07:25:08.297Z,2405.00
2023-05-04T07:26:08.328Z,2428.00
2023-05-04T07:27:08.291Z,2426.00
2023-05-04T07:28:08.461Z,2428.00
2023-05-04T07:29:08.268Z,2444.00
2023-05-04T07:30:08.344Z,2506.00
2023-05-04T07:31:08.517Z,2491.00
2023-05-04T07:32:08.433Z,2488.00
2023-05-04T07:33:08.492Z,2470.00
2023-05-04T07:34:10.439Z,2313.00
2023-05-04T07:35:08.604Z,2367.00
2023-05-04T07:36:08.655Z,2235.00
2023-05-04T07:37:08.731Z,2291.00
2023-05-04T07:38:08.949Z,1995.00
2023-05-04T07:39:08.835Z,1986.00
2023-05-04T07:40:08.896Z,1978.00
2023-05-04T07:41:08.925Z,2088.00
2023-05-04T07:42:08.882Z,2061.00
2023-05-04T07:43:08.947Z,2048.00
2023-05-04T07:44:08.935Z,2035.00
2023-05-04T07:45:08.889Z,2025.00
2023-05-04T07:46:08.995Z,2011.00
2023-05-04T07:47:08.926Z,1995.00
2023-05-04T07:48:08.986Z,1986.00
2023-05-04T07:49:09.018Z,1945.00
2023-05-04T07:50:08.970Z,1932.00
2023-05-04T07:51:09.009Z,1930.00
2023-05-04T07:52:09.005Z,1890.00
2023-05-04T07:53:09.069Z,1904.00
2023-05-04T07:54:09.090Z,1907.00
2023-05-04T07:55:09.086Z,1903.00
2023-05-04T07:56:09.146Z,1902.00
2023-05-04T07:57:09.409Z,1892.00
2023-05-04T07:58:09.203Z,1887.00
2023-05-04T07:59:09.242Z,1879.00
2023-05-04T08:00:09.308Z,1875.00
2023-05-04T08:01:09.381Z,1875.00
2023-05-04T08:02:09.514Z,1871.00
2023-05-04T08:03:09.473Z,1862.00
2023-05-04T08:04:09.613Z,1859.00
2023-05-04T08:05:09.561Z,1854.00
2023-05-04T08:06:09.630Z,1850.00
2023-05-04T08:07:09.700Z,1845.00
2023-05-04T08:08:09.750Z,1841.00
2023-05-04T08:09:09.848Z,1833.00
2023-05-04T08:10:09.833Z,1818.00
2023-05-04T08:11:19.536Z,1812.00
2023-05-04T08:12:10.892Z,1806.00
2023-05-04T08:13:09.991Z,1788.00
2023-05-04T08:14:09.965Z,1771.00
2023-05-04T08:15:09.926Z,1759.00
2023-05-04T08:16:09.858Z,1746.00
2023-05-04T08:17:09.866Z,1740.00
2023-05-04T08:18:09.866Z,1731.00
2023-05-04T08:19:09.870Z,1725.00
2023-05-04T08:20:09.894Z,1718.00
2023-05-04T08:21:09.935Z,1965.00
2023-05-04T08:22:09.989Z,1884.00
2023-05-04T08:23:10.501Z,1833.00
2023-05-04T08:24:10.129Z,1983.00
2023-05-04T08:25:11.003Z,1762.00
2023-05-04T08:26:10.193Z,1801.00
2023-05-04T08:27:10.298Z,1674.00
2023-05-04T08:28:10.495Z,1733.00
2023-05-04T08:29:10.497Z,1771.00
2023-05-04T08:30:10.430Z,1770.00
2023-05-04T08:31:10.581Z,1754.00
2023-05-04T08:32:10.536Z,1753.00
2023-05-04T08:33:10.805Z,1715.00
2023-05-04T08:34:10.628Z,1697.00
2023-05-04T08:35:10.729Z,1682.00
2023-05-04T08:36:10.797Z,1674.00
2023-05-04T08:37:10.829Z,1667.00
2023-05-04T08:38:10.988Z,1665.00
2023-05-04T08:39:10.917Z,1667.00
2023-05-04T08:40:11.006Z,1667.00
2023-05-04T08:41:11.075Z,1671.00
2023-05-04T08:42:11.113Z,1687.00
2023-05-04T08:43:11.168Z,1767.00
2023-05-04T08:44:11.193Z,1810.00
2023-05-04T08:45:11.270Z,1719.00
2023-05-04T08:46:11.371Z,1448.00
2023-05-04T08:47:11.353Z,1258.00
2023-05-04T08:48:11.439Z,1259.00
2023-05-04T08:49:11.449Z,1397.00
2023-05-04T08:50:11.486Z,1372.00
2023-05-04T08:51:11.526Z,1373.00
2023-05-04T08:52:11.542Z,1386.00
2023-05-04T08:53:11.630Z,1324.00
2023-05-04T08:54:11.596Z,1233.00
2023-05-04T08:55:11.840Z,1241.00
2023-05-04T08:56:11.636Z,1328.00
2023-05-04T08:57:11.657Z,1232.00
2023-05-04T08:58:11.715Z,1179.00
2023-05-04T08:59:11.728Z,1057.00
2023-05-04T09:00:11.727Z,1050.00
2023-05-04T09:01:11.988Z,1009.00
2023-05-04T09:02:11.860Z,1005.00
2023-05-04T09:03:11.786Z,1002.00
2023-05-04T09:04:12.562Z,990.00
2023-05-04T09:05:11.760Z,977.00
2023-05-04T09:06:11.754Z,969.00
2023-05-04T09:07:11.761Z,1018.00
2023-05-04T09:08:11.749Z,917.00
2023-05-04T09:09:11.766Z,875.00
2023-05-04T09:10:11.811Z,965.00
2023-05-04T09:11:11.799Z,968.00
2023-05-04T09:12:11.776Z,1034.00
2023-05-04T09:13:11.901Z,1050.00
2023-05-04T09:14:11.917Z,908.00
2023-05-04T09:15:11.860Z,925.00
2023-05-04T09:16:14.605Z,943.00
2023-05-04T09:17:12.041Z,980.00
2023-05-04T09:18:11.906Z,1081.00
2023-05-04T09:19:11.909Z,1023.00
2023-05-04T09:20:11.849Z,937.00
2023-05-04T09:21:11.927Z,1034.00
2023-05-04T09:22:11.857Z,1047.00
2023-05-04T09:23:11.919Z,1037.00
2023-05-04T09:24:11.834Z,1043.00
2023-05-04T09:25:11.823Z,1048.00
2023-05-04T09:26:11.852Z,1055.00
2023-05-04T09:27:11.939Z,1074.00
2023-05-04T09:28:11.817Z,1109.00
2023-05-04T09:29:11.830Z,1032.00
2023-05-04T09:30:11.852Z,1077.00
2023-05-04T09:31:11.952Z,1095.00
2023-05-04T09:32:11.789Z,1107.00
2023-05-04T09:33:11.874Z,1161.00
2023-05-04T09:34:11.770Z,1166.00
2023-05-04T09:35:18.733Z,1180.00
2023-05-04T09:36:12.845Z,1061.00
2023-05-04T09:37:11.780Z,1182.00
2023-05-04T09:38:11.751Z,1101.00
2023-05-04T09:39:11.781Z,1129.00
2023-05-04T09:40:11.743Z,1146.00
2023-05-04T09:41:11.780Z,1092.00
2023-05-04T09:42:11.716Z,1094.00
2023-05-04T09:43:11.742Z,999.00
2023-05-04T09:44:11.709Z,998.00
2023-05-04T09:45:11.731Z,948.00
2023-05-04T09:46:11.832Z,806.00
2023-05-04T09:47:11.822Z,867.00
2023-05-04T09:48:11.899Z,885.00
2023-05-04T09:49:12.277Z,889.00
2023-05-04T09:50:12.003Z,897.00
2023-05-04T09:51:12.110Z,920.00
2023-05-04T09:52:12.310Z,977.00
2023-05-04T09:53:12.266Z,986.00
2023-05-04T09:54:12.239Z,1008.00
2023-05-04T09:55:12.473Z,1057.00
2023-05-04T09:56:12.390Z,1080.00
2023-05-04T09:57:12.394Z,1076.00
2023-05-04T09:58:12.499Z,1071.00
2023-05-04T09:59:12.546Z,1073.00
2023-05-04T10:00:12.559Z,1088.00
2023-05-04T10:01:12.772Z,1103.00
2023-05-04T10:02:21.953Z,1154.00
2023-05-04T10:03:13.674Z,1174.00
2023-05-04T10:04:12.635Z,1174.00
2023-05-04T10:05:12.626Z,1182.00
2023-05-04T10:06:12.607Z,1191.00
2023-05-04T10:07:12.613Z,1195.00
2023-05-04T10:08:13.021Z,1204.00
2023-05-04T10:09:12.604Z,1216.00
2023-05-04T10:10:12.587Z,1282.00
2023-05-04T10:11:12.577Z,1275.00
2023-05-04T10:12:12.531Z,1250.00
2023-05-04T10:13:12.588Z,1217.00
2023-05-04T10:14:12.556Z,1227.00
2023-05-04T10:15:12.566Z,1242.00
2023-05-04T10:16:12.596Z,1301.00
2023-05-04T10:17:13.853Z,1315.00
2023-05-04T10:18:12.529Z,1295.00
2023-05-04T10:19:12.497Z,1302.00
2023-05-04T10:20:12.506Z,1314.00
2023-05-04T10:21:12.478Z,1317.00
2023-05-04T10:22:12.477Z,1323.00
2023-05-04T10:23:12.468Z,1334.00
2023-05-04T10:24:12.469Z,1338.00
2023-05-04T10:25:12.486Z,1358.00
2023-05-04T10:26:12.546Z,1384.00
2023-05-04T10:27:12.451Z,1289.00
2023-05-04T10:28:12.462Z,1321.00
2023-05-04T10:29:12.466Z,1352.00
2023-05-04T10:30:12.459Z,1339.00
2023-05-04T10:31:12.511Z,1258.00
2023-05-04T10:32:12.483Z,1116.00
2023-05-04T10:33:12.515Z,1160.00
2023-05-04T10:34:12.537Z,1181.00
2023-05-04T10:35:12.599Z,1195.00
2023-05-04T10:36:12.642Z,1190.00
2023-05-04T10:37:12.687Z,1072.00
2023-05-04T10:38:12.718Z,901.00
2023-05-04T10:39:12.749Z,833.00
2023-05-04T10:40:12.772Z,836.00
2023-05-04T10:41:12.834Z,749.00
2023-05-04T10:42:12.877Z,753.00
2023-05-04T10:43:12.960Z,766.00
2023-05-04T10:44:13.053Z,729.00
2023-05-04T10:45:13.055Z,667.00
2023-05-04T10:46:13.162Z,680.00
2023-05-04T10:47:13.189Z,679.00
2023-05-04T10:48:13.783Z,673.00
2023-05-04T10:49:13.243Z,655.00
2023-05-04T10:50:13.289Z,644.00
2023-05-04T10:51:13.309Z,630.00
2023-05-04T10:52:13.421Z,629.00
2023-05-04T10:53:13.478Z,630.00
2023-05-04T10:54:13.402Z,629.00
2023-05-04T10:55:13.509Z,601.00
2023-05-04T10:56:13.452Z,557.00
2023-05-04T10:57:13.486Z,550.00
2023-05-04T10:58:13.473Z,545.00
2023-05-04T10:59:13.452Z,545.00
2023-05-04T11:00:13.464Z,548.00
2023-05-04T11:01:13.540Z,553.00
2023-05-04T11:02:13.479Z,555.00
2023-05-04T11:03:13.545Z,573.00
2023-05-04T11:04:13.539Z,567.00
2023-05-04T11:05:13.449Z,566.00
2023-05-04T11:06:13.446Z,565.00
2023-05-04T11:07:13.468Z,557.00
2023-05-04T11:08:13.460Z,561.00
2023-05-04T11:09:13.693Z,565.00
2023-05-04T11:10:13.503Z,563.00
2023-05-04T11:11:13.569Z,558.00
2023-05-04T11:12:13.495Z,556.00
2023-05-04T11:13:13.549Z,565.00
2023-05-04T11:14:13.498Z,567.00
2023-05-04T11:15:13.525Z,567.00
2023-05-04T11:16:13.584Z,580.00
2023-05-04T11:17:26.916Z,577.00
2023-05-04T11:18:14.565Z,569.00
2023-05-04T11:19:13.522Z,562.00
2023-05-04T11:20:13.523Z,548.00
2023-05-04T11:21:13.502Z,536.00
2023-05-04T11:22:13.485Z,536.00
2023-05-04T11:23:13.474Z,531.00
2023-05-04T11:24:13.561Z,527.00
2023-05-04T11:25:13.450Z,524.00
2023-05-04T11:26:13.465Z,523.00
2023-05-04T11:27:13.441Z,525.00
2023-05-04T11:28:14.288Z,528.00
2023-05-04T11:29:13.614Z,534.00
2023-05-04T11:30:13.552Z,539.00
2023-05-04T11:31:13.501Z,544.00
2023-05-04T11:32:13.398Z,546.00
2023-05-04T11:33:13.451Z,549.00
2023-05-04T11:34:13.407Z,547.00
2023-05-04T11:35:13.413Z,546.00
2023-05-04T11:36:13.388Z,545.00
2023-05-04T11:37:13.440Z,543.00
2023-05-04T11:38:13.409Z,535.00
2023-05-04T11:39:13.621Z,528.00
2023-05-04T11:40:13.511Z,529.00
2023-05-04T11:41:13.407Z,531.00
2023-05-04T11:42:14.066Z,522.00
2023-05-04T11:43:16.070Z,520.00
2023-05-04T11:44:13.546Z,522.00
2023-05-04T11:45:13.429Z,524.00
2023-05-04T11:46:13.452Z,525.00
2023-05-04T11:47:13.422Z,524.00
2023-05-04T11:48:13.366Z,518.00
2023-05-04T11:49:14.077Z,511.00
2023-05-04T11:50:13.417Z,508.00
2023-05-04T11:51:13.397Z,504.00
2023-05-04T11:52:13.365Z,504.00
2023-05-04T11:53:13.347Z,506.00
2023-05-04T11:54:13.338Z,501.00
2023-05-04T11:55:14.055Z,495.00
2023-05-04T11:56:13.331Z,491.00
2023-05-04T11:57:13.341Z,486.00
2023-05-04T11:58:13.349Z,482.00
2023-05-04T11:59:13.557Z,479.00
2023-05-04T12:00:13.361Z,480.00
2023-05-04T12:01:13.287Z,480.00
2023-05-04T12:02:13.281Z,481.00
2023-05-04T12:03:13.441Z,483.00
2023-05-04T12:04:13.350Z,478.00
2023-05-04T12:05:13.284Z,475.00
2023-05-04T12:06:13.269Z,472.00
2023-05-04T12:07:13.252Z,470.00
2023-05-04T12:08:13.254Z,471.00
2023-05-04T12:09:13.250Z,468.00
2023-05-04T12:10:13.305Z,466.00
2023-05-04T12:11:13.218Z,468.00
2023-05-04T12:12:13.233Z,468.00
2023-05-04T12:13:13.306Z,466.00
2023-05-04T12:14:13.213Z,463.00
2023-05-04T12:15:13.233Z,465.00
2023-05-04T12:16:13.273Z,469.00
2023-05-04T12:17:13.191Z,472.00
2023-05-04T12:18:13.184Z,473.00
2023-05-04T12:19:13.514Z,470.00
2023-05-04T12:20:13.244Z,469.00
2023-05-04T12:21:13.185Z,469.00